createdAt,value
2022-08-08T00:00:52.784Z,17.58
2022-08-08T00:05:44.183Z,17.48
2022-08-08T00:10:56.559Z,17.54
2022-08-08T00:16:03.955Z,17.48
2022-08-08T00:21:07.916Z,17.41
2022-08-08T00:26:13.503Z,17.37
2022-08-08T00:32:20.427Z,17.19
2022-08-08T00:36:47.051Z,17.07
2022-08-08T00:42:37.098Z,16.97
2022-08-08T00:48:30.123Z,16.90
2022-08-08T00:54:15.488Z,16.77
2022-08-08T00:59:54.896Z,16.73
2022-08-08T01:05:29.292Z,16.69
2022-08-08T01:11:15.450Z,16.59
2022-08-08T01:16:39.439Z,16.55
2022-08-08T01:22:12.973Z,16.43
2022-08-08T01:27:46.339Z,16.32
2022-08-08T01:33:54.173Z,16.27
2022-08-08T01:39:23.709Z,16.23
2022-08-08T01:45:04.261Z,16.20
2022-08-08T01:50:21.526Z,16.15
2022-08-08T01:56:27.640Z,16.13
2022-08-08T02:01:15.703Z,16.12
2022-08-08T02:06:44.693Z,16.01
2022-08-08T02:11:59.029Z,15.94
2022-08-08T02:17:20.296Z,15.90
2022-08-08T02:22:34.470Z,15.92
2022-08-08T02:27:58.898Z,15.81
2022-08-08T02:33:21.503Z,15.77
2022-08-08T02:38:55.946Z,15.68
2022-08-08T02:44:36.937Z,15.59
2022-08-08T02:50:17.568Z,15.68
2022-08-08T02:55:49.101Z,15.67
2022-08-08T03:01:47.235Z,15.65
2022-08-08T03:07:41.797Z,15.60
2022-08-08T03:15:54.152Z,15.53
2022-08-08T03:19:02.061Z,15.47
2022-08-08T03:24:06.538Z,15.37
2022-08-08T03:29:16.858Z,15.36
2022-08-08T03:34:24.055Z,15.33
2022-08-08T03:39:31.848Z,15.26
2022-08-08T03:44:45.017Z,15.14
2022-08-08T03:50:00.894Z,14.84
2022-08-08T03:55:20.240Z,14.76
2022-08-08T04:01:01.381Z,14.93
2022-08-08T04:06:06.753Z,14.74
2022-08-08T04:11:17.652Z,14.76
2022-08-08T04:16:40.063Z,14.78
2022-08-08T04:21:45.785Z,14.93
2022-08-08T04:26:57.169Z,14.93
2022-08-08T04:32:01.682Z,14.76
2022-08-08T04:37:08.354Z,14.91
2022-08-08T04:42:15.938Z,15.02
2022-08-08T04:47:30.791Z,15.11
2022-08-08T04:52:35.328Z,15.22
2022-08-08T04:57:44.535Z,15.33
2022-08-08T05:02:48.046Z,15.49
2022-08-08T05:07:56.916Z,15.64
2022-08-08T05:13:02.942Z,15.75
2022-08-08T05:18:10.614Z,15.86
2022-08-08T05:23:16.753Z,16.00
2022-08-08T05:28:55.753Z,16.10
2022-08-08T05:33:49.257Z,16.20
2022-08-08T05:38:54.536Z,16.30
2022-08-08T05:44:04.884Z,16.39
2022-08-08T05:49:11.187Z,16.38
2022-08-08T05:54:28.737Z,16.53
2022-08-08T05:59:58.658Z,16.59
2022-08-08T06:05:33.460Z,16.76
2022-08-08T06:10:41.181Z,16.92
2022-08-08T06:15:53.584Z,17.05
2022-08-08T06:21:28.537Z,17.17
2022-08-08T06:26:45.491Z,17.29
2022-08-08T06:32:09.979Z,17.41
2022-08-08T06:37:24.330Z,17.50
2022-08-08T06:42:43.406Z,17.56
2022-08-08T06:47:58.494Z,17.67
2022-08-08T06:53:17.366Z,17.78
2022-08-08T06:58:30.707Z,17.97
2022-08-08T07:03:52.381Z,18.11
2022-08-08T07:09:15.409Z,18.25
2022-08-08T07:14:27.872Z,18.40
2022-08-08T07:19:39.478Z,18.52
2022-08-08T07:24:46.530Z,18.63
2022-08-08T07:30:01.856Z,18.77
2022-08-08T07:35:17.968Z,18.92
2022-08-08T07:40:29.644Z,19.05
2022-08-08T07:46:04.859Z,19.20
2022-08-08T07:51:02.565Z,19.32
2022-08-08T07:56:17.559Z,19.54
2022-08-08T08:02:34.819Z,19.73
2022-08-08T08:07:12.443Z,19.92
2022-08-08T08:12:35.153Z,20.07
2022-08-08T08:17:48.264Z,20.29
2022-08-08T08:22:57.734Z,20.50
2022-08-08T08:28:01.068Z,20.85
2022-08-08T08:33:06.984Z,21.14
2022-08-08T08:38:17.867Z,21.20
2022-08-08T08:43:26.932Z,21.37
2022-08-08T08:48:32.424Z,21.53
2022-08-08T08:53:56.348Z,21.57
2022-08-08T08:59:05.884Z,21.77
2022-08-08T09:04:31.673Z,21.86
2022-08-08T09:09:47.888Z,22.15
2022-08-08T09:14:59.487Z,22.07
2022-08-08T09:21:58.547Z,22.10
2022-08-08T09:25:54.857Z,22.43
2022-08-08T09:31:12.592Z,22.47
2022-08-08T09:36:23.060Z,22.77
2022-08-08T09:42:14.030Z,22.95
2022-08-08T09:48:02.355Z,22.93
2022-08-08T09:52:59.350Z,23.07
2022-08-08T09:58:07.239Z,23.41
2022-08-08T10:03:15.188Z,23.11
2022-08-08T10:08:22.835Z,22.76
2022-08-08T10:13:35.760Z,22.94
2022-08-08T10:18:41.221Z,23.28
2022-08-08T10:23:56.115Z,23.39
2022-08-08T10:29:06.898Z,23.72
2022-08-08T10:34:18.604Z,24.06
2022-08-08T10:39:31.503Z,24.30
2022-08-08T10:44:49.421Z,24.42
2022-08-08T10:50:01.320Z,24.64
2022-08-08T10:55:07.913Z,24.87
2022-08-08T11:00:15.413Z,24.93
2022-08-08T11:05:18.224Z,25.22
2022-08-08T11:10:29.449Z,25.30
2022-08-08T11:15:35.402Z,25.45
2022-08-08T11:20:55.423Z,25.60
2022-08-08T11:26:02.589Z,25.71
2022-08-08T11:31:08.665Z,25.51
2022-08-08T11:36:14.329Z,25.32
2022-08-08T11:41:18.042Z,25.55
2022-08-08T11:46:22.878Z,26.07
2022-08-08T11:51:29.512Z,26.75
2022-08-08T11:56:42.242Z,27.41
2022-08-08T12:01:46.416Z,28.04
2022-08-08T12:06:49.656Z,28.41
2022-08-08T12:11:53.147Z,29.58
2022-08-08T12:16:57.624Z,29.79
2022-08-08T12:22:09.228Z,30.14
2022-08-08T12:27:19.646Z,30.73
2022-08-08T12:32:24.525Z,31.12
2022-08-08T12:37:40.968Z,31.63
2022-08-08T12:42:47.437Z,32.75
2022-08-08T12:48:10.489Z,35.31
2022-08-08T12:53:30.080Z,35.35
2022-08-08T12:58:45.145Z,33.70
2022-08-08T13:03:52.071Z,33.16
2022-08-08T13:08:56.785Z,30.77
2022-08-08T13:14:05.432Z,30.61
2022-08-08T13:19:17.823Z,31.90
2022-08-08T13:24:38.759Z,32.44
2022-08-08T13:29:52.787Z,30.89
2022-08-08T13:34:59.039Z,30.16
2022-08-08T13:40:04.293Z,31.54
2022-08-08T13:45:09.876Z,32.17
2022-08-08T13:50:34.789Z,32.21
2022-08-08T13:55:38.752Z,32.10
2022-08-08T14:00:45.385Z,32.65
2022-08-08T14:06:00.550Z,32.70
2022-08-08T14:11:04.426Z,32.69
2022-08-08T14:16:16.540Z,33.49
2022-08-08T14:21:22.134Z,33.98
2022-08-08T14:26:28.599Z,34.87
2022-08-08T14:32:05.891Z,33.71
2022-08-08T14:36:55.960Z,36.57
2022-08-08T14:42:07.434Z,39.97
2022-08-08T14:47:17.365Z,43.53
2022-08-08T14:52:25.560Z,41.61
2022-08-08T14:58:02.425Z,38.70
2022-08-08T15:02:59.164Z,39.66
2022-08-08T15:08:22.225Z,36.43
2022-08-08T15:13:40.857Z,36.05
2022-08-08T15:18:59.678Z,37.90
2022-08-08T15:24:03.836Z,35.58
2022-08-08T15:29:06.770Z,33.82
2022-08-08T15:34:29.603Z,34.08
2022-08-08T15:39:38.523Z,34.19
2022-08-08T15:44:43.289Z,32.87
2022-08-08T15:49:49.342Z,33.08
2022-08-08T15:54:53.977Z,33.81
2022-08-08T16:00:05.469Z,34.15
2022-08-08T16:05:20.052Z,35.85
2022-08-08T16:13:14.103Z,37.02
2022-08-08T16:15:58.861Z,35.37
2022-08-08T16:21:25.858Z,33.55
2022-08-08T16:26:34.783Z,32.60
2022-08-08T16:31:42.136Z,32.66
2022-08-08T16:36:51.664Z,32.16
2022-08-08T16:42:00.957Z,30.80
2022-08-08T16:47:18.303Z,30.02
2022-08-08T16:55:02.366Z,29.94
2022-08-08T16:58:16.242Z,30.24
2022-08-08T17:03:11.597Z,30.15
2022-08-08T17:08:17.155Z,29.97
2022-08-08T17:13:23.019Z,29.11
2022-08-08T17:18:30.687Z,28.47
2022-08-08T17:23:58.305Z,28.38
2022-08-08T17:29:04.521Z,28.36
2022-08-08T17:34:54.212Z,28.21
2022-08-08T17:40:03.748Z,28.20
2022-08-08T17:44:58.100Z,28.10
2022-08-08T17:50:03.060Z,27.54
2022-08-08T17:55:09.314Z,27.22
2022-08-08T18:00:32.039Z,26.96
2022-08-08T18:05:48.169Z,26.62
2022-08-08T18:10:53.434Z,26.35
2022-08-08T18:15:59.828Z,26.11
2022-08-08T18:21:10.363Z,25.83
2022-08-08T18:26:13.700Z,25.65
2022-08-08T18:31:18.393Z,25.44
2022-08-08T18:36:23.253Z,25.27
2022-08-08T18:41:51.890Z,25.02
2022-08-08T18:46:57.915Z,24.79
2022-08-08T18:52:02.142Z,24.60
2022-08-08T18:57:09.034Z,24.46
2022-08-08T19:02:28.021Z,24.33
2022-08-08T19:07:33.430Z,24.21
2022-08-08T19:12:44.522Z,24.06
2022-08-08T19:18:31.796Z,23.94
2022-08-08T19:23:16.932Z,23.82
2022-08-08T19:28:20.384Z,23.67
2022-08-08T19:33:25.978Z,23.56
2022-08-08T19:38:51.299Z,23.46
2022-08-08T19:44:02.357Z,23.28
2022-08-08T19:49:09.768Z,23.16
2022-08-08T19:54:12.778Z,23.07
2022-08-08T19:59:15.484Z,22.99
2022-08-08T20:04:26.348Z,22.86
2022-08-08T20:09:30.084Z,22.79
2022-08-08T20:14:35.912Z,22.63
2022-08-08T20:19:46.225Z,22.31
2022-08-08T20:24:50.446Z,22.29
2022-08-08T20:29:55.780Z,22.27
2022-08-08T20:35:05.933Z,22.19
2022-08-08T20:40:16.727Z,22.16
2022-08-08T20:45:54.348Z,22.09
2022-08-08T20:50:44.286Z,21.99
2022-08-08T20:55:51.224Z,21.86
2022-08-08T21:00:54.288Z,21.77
2022-08-08T21:05:59.494Z,21.62
2022-08-08T21:11:02.597Z,21.48
2022-08-08T21:16:17.778Z,21.34
2022-08-08T21:21:39.689Z,21.23
2022-08-08T21:26:44.811Z,21.15
2022-08-08T21:31:58.700Z,21.03
2022-08-08T21:37:11.506Z,20.83
2022-08-08T21:42:22.981Z,20.72
2022-08-08T21:48:04.175Z,20.68
2022-08-08T21:54:27.332Z,20.57
2022-08-08T21:58:16.540Z,20.48
2022-08-08T22:03:20.137Z,20.43
2022-08-08T22:08:24.558Z,20.42
2022-08-08T22:13:43.350Z,20.34
2022-08-08T22:18:52.723Z,20.24
2022-08-08T22:23:57.166Z,20.15
2022-08-08T22:29:13.942Z,20.03
2022-08-08T22:34:24.965Z,19.88
2022-08-08T22:39:45.804Z,19.84
2022-08-08T22:44:54.224Z,19.75
2022-08-08T22:49:59.977Z,19.73
2022-08-08T22:55:06.444Z,19.66
2022-08-08T23:00:11.695Z,19.51
2022-08-08T23:05:16.292Z,18.96
2022-08-08T23:10:21.277Z,18.87
2022-08-08T23:16:38.580Z,19.11
2022-08-08T23:20:54.633Z,19.18
2022-08-08T23:25:59.165Z,19.11
2022-08-08T23:31:02.670Z,19.09
2022-08-08T23:36:08.425Z,19.03
2022-08-08T23:41:22.748Z,18.93
2022-08-08T23:49:02.099Z,18.77
2022-08-08T23:52:06.259Z,18.72
2022-08-08T23:57:25.241Z,18.65
